sensor_id;sensor_type;location;lat;lon;timestamp;P1;durP1;ratioP1;P2;durP2;ratioP2
419;SDS011;42600;54.408;13.016;2022-11-14T00:02:03;6.10;;;1.87;;
419;SDS011;42600;54.408;13.016;2022-11-14T00:04:29;9.73;;;3.00;;
419;SDS011;42600;54.408;13.016;2022-11-14T00:06:56;5.93;;;2.43;;
419;SDS011;42600;54.408;13.016;2022-11-14T00:09:23;7.40;;;2.43;;
419;SDS011;42600;54.408;13.016;2022-11-14T00:11:50;4.10;;;2.63;;
419;SDS011;42600;54.408;13.016;2022-11-14T00:14:17;8.87;;;2.57;;
419;SDS011;42600;54.408;13.016;2022-11-14T00:16:44;7.60;;;3.27;;
419;SDS011;42600;54.408;13.016;2022-11-14T00:19:11;7.10;;;2.50;;
419;SDS011;42600;54.408;13.016;2022-11-14T00:21:38;8.77;;;3.00;;
419;SDS011;42600;54.408;13.016;2022-11-14T00:24:04;6.50;;;2.30;;
419;SDS011;42600;54.408;13.016;2022-11-14T00:26:31;12.23;;;4.87;;
419;SDS011;42600;54.408;13.016;2022-11-14T00:28:58;7.40;;;2.53;;
419;SDS011;42600;54.408;13.016;2022-11-14T00:31:24;9.57;;;3.07;;
419;SDS011;42600;54.408;13.016;2022-11-14T00:33:52;7.63;;;3.50;;
419;SDS011;42600;54.408;13.016;2022-11-14T00:36:19;8.23;;;2.90;;
419;SDS011;42600;54.408;13.016;2022-11-14T00:38:45;4.70;;;2.50;;
419;SDS011;42600;54.408;13.016;2022-11-14T00:41:12;8.30;;;2.93;;
419;SDS011;42600;54.408;13.016;2022-11-14T00:43:38;6.73;;;2.53;;
419;SDS011;42600;54.408;13.016;2022-11-14T00:46:05;11.57;;;2.90;;
419;SDS011;42600;54.408;13.016;2022-11-14T00:48:31;12.27;;;2.83;;
419;SDS011;42600;54.408;13.016;2022-11-14T00:50:59;7.83;;;2.73;;
419;SDS011;42600;54.408;13.016;2022-11-14T00:53:26;6.50;;;2.53;;
419;SDS011;42600;54.408;13.016;2022-11-14T00:55:52;7.10;;;3.40;;
419;SDS011;42600;54.408;13.016;2022-11-14T00:58:19;14.03;;;2.70;;
419;SDS011;42600;54.408;13.016;2022-11-14T01:00:46;6.93;;;1.97;;
419;SDS011;42600;54.408;13.016;2022-11-14T01:03:12;6.83;;;2.37;;
419;SDS011;42600;54.408;13.016;2022-11-14T01:05:39;6.33;;;2.87;;
419;SDS011;42600;54.408;13.016;2022-11-14T01:08:08;8.73;;;3.17;;
419;SDS011;42600;54.408;13.016;2022-11-14T01:10:37;3.73;;;2.07;;
419;SDS011;42600;54.408;13.016;2022-11-14T01:13:04;7.80;;;1.97;;
419;SDS011;42600;54.408;13.016;2022-11-14T01:15:31;4.10;;;2.30;;
419;SDS011;42600;54.408;13.016;2022-11-14T01:17:57;9.93;;;3.70;;
419;SDS011;42600;54.408;13.016;2022-11-14T01:20:24;12.80;;;4.00;;
419;SDS011;42600;54.408;13.016;2022-11-14T01:22:50;12.83;;;4.23;;
419;SDS011;42600;54.408;13.016;2022-11-14T01:25:18;8.20;;;3.10;;
419;SDS011;42600;54.408;13.016;2022-11-14T01:27:45;13.00;;;3.20;;
419;SDS011;42600;54.408;13.016;2022-11-14T01:30:12;13.37;;;3.33;;
419;SDS011;42600;54.408;13.016;2022-11-14T01:32:39;12.33;;;4.60;;
419;SDS011;42600;54.408;13.016;2022-11-14T01:35:05;12.63;;;3.43;;
419;SDS011;42600;54.408;13.016;2022-11-14T01:37:32;12.47;;;4.80;;
419;SDS011;42600;54.408;13.016;2022-11-14T01:39:59;10.40;;;3.13;;
419;SDS011;42600;54.408;13.016;2022-11-14T01:42:27;11.07;;;5.03;;
419;SDS011;42600;54.408;13.016;2022-11-14T01:44:53;16.80;;;4.67;;
419;SDS011;42600;54.408;13.016;2022-11-14T01:47:21;16.73;;;4.93;;
419;SDS011;42600;54.408;13.016;2022-11-14T01:49:51;13.80;;;4.43;;
419;SDS011;42600;54.408;13.016;2022-11-14T01:52:20;15.27;;;4.97;;
419;SDS011;42600;54.408;13.016;2022-11-14T01:54:50;15.97;;;5.17;;
419;SDS011;42600;54.408;13.016;2022-11-14T01:57:20;19.20;;;4.57;;
419;SDS011;42600;54.408;13.016;2022-11-14T01:59:52;9.80;;;4.10;;
419;SDS011;42600;54.408;13.016;2022-11-14T02:02:22;10.27;;;3.80;;
419;SDS011;42600;54.408;13.016;2022-11-14T02:04:51;9.67;;;3.93;;
419;SDS011;42600;54.408;13.016;2022-11-14T02:07:21;13.73;;;4.60;;
419;SDS011;42600;54.408;13.016;2022-11-14T02:09:50;11.83;;;3.73;;
419;SDS011;42600;54.408;13.016;2022-11-14T02:12:17;10.57;;;4.23;;
419;SDS011;42600;54.408;13.016;2022-11-14T02:14:46;10.67;;;3.20;;
419;SDS011;42600;54.408;13.016;2022-11-14T02:17:17;8.23;;;3.00;;
419;SDS011;42600;54.408;13.016;2022-11-14T02:19:46;13.73;;;3.97;;
419;SDS011;42600;54.408;13.016;2022-11-14T02:22:16;10.13;;;3.63;;
419;SDS011;42600;54.408;13.016;2022-11-14T02:24:42;8.23;;;4.20;;
419;SDS011;42600;54.408;13.016;2022-11-14T02:27:09;8.30;;;3.00;;
419;SDS011;42600;54.408;13.016;2022-11-14T02:29:36;11.10;;;2.80;;
419;SDS011;42600;54.408;13.016;2022-11-14T02:32:03;11.60;;;3.00;;
419;SDS011;42600;54.408;13.016;2022-11-14T02:34:30;8.53;;;3.87;;
419;SDS011;42600;54.408;13.016;2022-11-14T02:36:58;8.63;;;3.10;;
419;SDS011;42600;54.408;13.016;2022-11-14T02:39:26;18.77;;;3.13;;
419;SDS011;42600;54.408;13.016;2022-11-14T02:41:52;6.40;;;2.63;;
419;SDS011;42600;54.408;13.016;2022-11-14T02:44:19;7.77;;;2.43;;
419;SDS011;42600;54.408;13.016;2022-11-14T02:46:46;18.97;;;4.00;;
419;SDS011;42600;54.408;13.016;2022-11-14T02:49:12;6.73;;;3.13;;
419;SDS011;42600;54.408;13.016;2022-11-14T02:51:39;10.23;;;4.70;;
419;SDS011;42600;54.408;13.016;2022-11-14T02:54:06;13.07;;;4.20;;
419;SDS011;42600;54.408;13.016;2022-11-14T02:56:34;14.57;;;3.70;;
419;SDS011;42600;54.408;13.016;2022-11-14T02:59:00;17.97;;;4.70;;
419;SDS011;42600;54.408;13.016;2022-11-14T03:01:27;18.50;;;5.40;;
419;SDS011;42600;54.408;13.016;2022-11-14T03:03:54;19.80;;;6.70;;
419;SDS011;42600;54.408;13.016;2022-11-14T03:06:20;17.87;;;5.30;;
419;SDS011;42600;54.408;13.016;2022-11-14T03:08:47;22.30;;;6.87;;
419;SDS011;42600;54.408;13.016;2022-11-14T03:11:13;27.93;;;8.97;;
419;SDS011;42600;54.408;13.016;2022-11-14T03:13:41;44.50;;;11.10;;
419;SDS011;42600;54.408;13.016;2022-11-14T03:16:09;51.67;;;11.50;;
419;SDS011;42600;54.408;13.016;2022-11-14T03:18:38;39.00;;;9.40;;
419;SDS011;42600;54.408;13.016;2022-11-14T03:21:05;45.37;;;11.43;;
419;SDS011;42600;54.408;13.016;2022-11-14T03:23:32;35.33;;;12.63;;
419;SDS011;42600;54.408;13.016;2022-11-14T03:25:59;51.40;;;12.40;;
419;SDS011;42600;54.408;13.016;2022-11-14T03:28:26;38.13;;;10.13;;
419;SDS011;42600;54.408;13.016;2022-11-14T03:30:54;44.63;;;12.50;;
419;SDS011;42600;54.408;13.016;2022-11-14T03:33:21;40.50;;;11.93;;
419;SDS011;42600;54.408;13.016;2022-11-14T03:35:48;49.77;;;13.13;;
419;SDS011;42600;54.408;13.016;2022-11-14T03:38:15;48.83;;;11.90;;
419;SDS011;42600;54.408;13.016;2022-11-14T03:40:42;37.77;;;11.03;;
419;SDS011;42600;54.408;13.016;2022-11-14T03:43:09;45.80;;;12.33;;
419;SDS011;42600;54.408;13.016;2022-11-14T03:45:36;45.80;;;12.67;;
419;SDS011;42600;54.408;13.016;2022-11-14T03:48:04;42.47;;;12.03;;
419;SDS011;42600;54.408;13.016;2022-11-14T03:50:31;36.50;;;9.50;;
419;SDS011;42600;54.408;13.016;2022-11-14T03:52:58;28.23;;;9.30;;
419;SDS011;42600;54.408;13.016;2022-11-14T03:55:25;36.70;;;9.40;;
419;SDS011;42600;54.408;13.016;2022-11-14T03:57:51;40.77;;;9.00;;
419;SDS011;42600;54.408;13.016;2022-11-14T04:00:18;30.37;;;8.63;;
419;SDS011;42600;54.408;13.016;2022-11-14T04:02:45;39.57;;;9.57;;
419;SDS011;42600;54.408;13.016;2022-11-14T04:05:14;26.60;;;7.77;;
419;SDS011;42600;54.408;13.016;2022-11-14T04:07:40;20.90;;;8.23;;
419;SDS011;42600;54.408;13.016;2022-11-14T04:10:07;31.73;;;7.97;;
419;SDS011;42600;54.408;13.016;2022-11-14T04:12:34;42.10;;;9.93;;
419;SDS011;42600;54.408;13.016;2022-11-14T04:15:00;32.47;;;8.53;;
419;SDS011;42600;54.408;13.016;2022-11-14T04:17:27;40.70;;;12.30;;
419;SDS011;42600;54.408;13.016;2022-11-14T04:19:53;36.07;;;9.33;;
419;SDS011;42600;54.408;13.016;2022-11-14T04:22:21;26.60;;;10.20;;
419;SDS011;42600;54.408;13.016;2022-11-14T04:24:48;38.80;;;10.20;;
419;SDS011;42600;54.408;13.016;2022-11-14T04:27:15;42.83;;;10.37;;
419;SDS011;42600;54.408;13.016;2022-11-14T04:29:41;34.57;;;9.30;;
419;SDS011;42600;54.408;13.016;2022-11-14T04:32:08;33.10;;;11.30;;
419;SDS011;42600;54.408;13.016;2022-11-14T04:34:34;45.40;;;13.70;;
419;SDS011;42600;54.408;13.016;2022-11-14T04:37:01;51.77;;;12.53;;
419;SDS011;42600;54.408;13.016;2022-11-14T04:39:29;35.23;;;11.90;;
419;SDS011;42600;54.408;13.016;2022-11-14T04:41:55;37.30;;;9.70;;
419;SDS011;42600;54.408;13.016;2022-11-14T04:44:22;51.07;;;13.17;;
419;SDS011;42600;54.408;13.016;2022-11-14T04:46:49;33.07;;;11.53;;
419;SDS011;42600;54.408;13.016;2022-11-14T04:49:15;35.30;;;9.63;;
419;SDS011;42600;54.408;13.016;2022-11-14T04:51:42;21.33;;;8.83;;
419;SDS011;42600;54.408;13.016;2022-11-14T04:54:08;36.80;;;11.93;;
419;SDS011;42600;54.408;13.016;2022-11-14T04:56:36;27.37;;;7.30;;
419;SDS011;42600;54.408;13.016;2022-11-14T04:59:03;25.50;;;9.00;;
419;SDS011;42600;54.408;13.016;2022-11-14T05:01:29;35.37;;;9.93;;
419;SDS011;42600;54.408;13.016;2022-11-14T05:03:56;41.17;;;11.80;;
419;SDS011;42600;54.408;13.016;2022-11-14T05:06:22;39.93;;;11.97;;
419;SDS011;42600;54.408;13.016;2022-11-14T05:08:49;27.60;;;9.40;;
419;SDS011;42600;54.408;13.016;2022-11-14T05:11:16;31.00;;;11.00;;
419;SDS011;42600;54.408;13.016;2022-11-14T05:13:45;27.33;;;8.37;;
419;SDS011;42600;54.408;13.016;2022-11-14T05:16:12;31.77;;;9.00;;
419;SDS011;42600;54.408;13.016;2022-11-14T05:18:39;34.57;;;11.47;;
419;SDS011;42600;54.408;13.016;2022-11-14T05:21:05;33.97;;;9.53;;
419;SDS011;42600;54.408;13.016;2022-11-14T05:23:32;39.37;;;8.43;;
419;SDS011;42600;54.408;13.016;2022-11-14T05:25:59;23.13;;;9.60;;
419;SDS011;42600;54.408;13.016;2022-11-14T05:28:27;34.30;;;9.30;;
419;SDS011;42600;54.408;13.016;2022-11-14T05:31:00;24.03;;;8.20;;
419;SDS011;42600;54.408;13.016;2022-11-14T05:33:28;26.87;;;8.50;;
419;SDS011;42600;54.408;13.016;2022-11-14T05:35:54;20.90;;;7.90;;
419;SDS011;42600;54.408;13.016;2022-11-14T05:38:21;38.80;;;8.80;;
419;SDS011;42600;54.408;13.016;2022-11-14T05:40:47;46.83;;;11.37;;
419;SDS011;42600;54.408;13.016;2022-11-14T05:43:14;32.30;;;11.33;;
419;SDS011;42600;54.408;13.016;2022-11-14T05:45:40;30.00;;;9.80;;
419;SDS011;42600;54.408;13.016;2022-11-14T05:48:08;37.43;;;11.50;;
419;SDS011;42600;54.408;13.016;2022-11-14T05:50:35;33.90;;;12.30;;
419;SDS011;42600;54.408;13.016;2022-11-14T05:53:01;41.83;;;12.90;;
419;SDS011;42600;54.408;13.016;2022-11-14T05:55:28;33.13;;;11.37;;
419;SDS011;42600;54.408;13.016;2022-11-14T05:57:56;47.07;;;11.50;;
419;SDS011;42600;54.408;13.016;2022-11-14T06:00:23;38.33;;;11.17;;
419;SDS011;42600;54.408;13.016;2022-11-14T06:02:51;32.97;;;10.53;;
419;SDS011;42600;54.408;13.016;2022-11-14T06:05:19;27.40;;;10.40;;
419;SDS011;42600;54.408;13.016;2022-11-14T06:07:45;32.67;;;11.20;;
419;SDS011;42600;54.408;13.016;2022-11-14T06:10:12;49.13;;;13.93;;
419;SDS011;42600;54.408;13.016;2022-11-14T06:12:39;39.27;;;12.43;;
419;SDS011;42600;54.408;13.016;2022-11-14T06:15:06;50.37;;;13.13;;
419;SDS011;42600;54.408;13.016;2022-11-14T06:17:33;43.13;;;12.37;;
419;SDS011;42600;54.408;13.016;2022-11-14T06:19:59;37.27;;;12.47;;
419;SDS011;42600;54.408;13.016;2022-11-14T06:22:27;38.93;;;13.20;;
419;SDS011;42600;54.408;13.016;2022-11-14T06:24:54;40.73;;;11.40;;
419;SDS011;42600;54.408;13.016;2022-11-14T06:27:20;41.53;;;11.60;;
419;SDS011;42600;54.408;13.016;2022-11-14T06:29:47;34.40;;;10.40;;
419;SDS011;42600;54.408;13.016;2022-11-14T06:32:14;33.97;;;11.20;;
419;SDS011;42600;54.408;13.016;2022-11-14T06:34:40;43.23;;;11.47;;
419;SDS011;42600;54.408;13.016;2022-11-14T06:37:07;41.13;;;11.40;;
419;SDS011;42600;54.408;13.016;2022-11-14T06:39:35;30.90;;;12.20;;
419;SDS011;42600;54.408;13.016;2022-11-14T06:42:01;45.40;;;11.70;;
419;SDS011;42600;54.408;13.016;2022-11-14T06:44:28;51.53;;;13.47;;
419;SDS011;42600;54.408;13.016;2022-11-14T06:46:54;46.17;;;13.57;;
419;SDS011;42600;54.408;13.016;2022-11-14T06:49:21;40.43;;;11.70;;
419;SDS011;42600;54.408;13.016;2022-11-14T06:51:48;38.73;;;11.80;;
419;SDS011;42600;54.408;13.016;2022-11-14T06:54:15;50.17;;;14.90;;
419;SDS011;42600;54.408;13.016;2022-11-14T06:56:43;43.60;;;13.20;;
419;SDS011;42600;54.408;13.016;2022-11-14T06:59:10;56.03;;;13.27;;
419;SDS011;42600;54.408;13.016;2022-11-14T07:01:37;42.83;;;11.40;;
419;SDS011;42600;54.408;13.016;2022-11-14T07:04:03;43.00;;;14.10;;
419;SDS011;42600;54.408;13.016;2022-11-14T07:06:30;49.67;;;12.80;;
419;SDS011;42600;54.408;13.016;2022-11-14T07:08:57;51.27;;;12.30;;
419;SDS011;42600;54.408;13.016;2022-11-14T07:11:25;46.97;;;12.73;;
419;SDS011;42600;54.408;13.016;2022-11-14T07:13:55;39.40;;;11.43;;
419;SDS011;42600;54.408;13.016;2022-11-14T07:16:23;66.00;;;14.77;;
419;SDS011;42600;54.408;13.016;2022-11-14T07:18:53;58.33;;;16.13;;
419;SDS011;42600;54.408;13.016;2022-11-14T07:21:19;56.17;;;14.63;;
419;SDS011;42600;54.408;13.016;2022-11-14T07:23:46;35.20;;;13.60;;
419;SDS011;42600;54.408;13.016;2022-11-14T07:26:13;49.47;;;13.40;;
419;SDS011;42600;54.408;13.016;2022-11-14T07:28:40;43.80;;;12.40;;
419;SDS011;42600;54.408;13.016;2022-11-14T07:31:10;45.63;;;14.07;;
419;SDS011;42600;54.408;13.016;2022-11-14T07:33:39;71.50;;;21.50;;
419;SDS011;42600;54.408;13.016;2022-11-14T07:36:07;91.20;;;21.47;;
419;SDS011;42600;54.408;13.016;2022-11-14T07:38:34;66.13;;;18.27;;
419;SDS011;42600;54.408;13.016;2022-11-14T07:41:02;56.90;;;18.20;;
419;SDS011;42600;54.408;13.016;2022-11-14T07:43:30;74.40;;;17.50;;
419;SDS011;42600;54.408;13.016;2022-11-14T07:46:00;83.37;;;19.73;;
419;SDS011;42600;54.408;13.016;2022-11-14T07:48:29;79.93;;;19.50;;
419;SDS011;42600;54.408;13.016;2022-11-14T07:50:57;65.93;;;21.83;;
419;SDS011;42600;54.408;13.016;2022-11-14T07:53:25;69.20;;;16.47;;
419;SDS011;42600;54.408;13.016;2022-11-14T07:55:51;85.67;;;22.97;;
419;SDS011;42600;54.408;13.016;2022-11-14T07:58:18;63.87;;;19.67;;
419;SDS011;42600;54.408;13.016;2022-11-14T08:00:45;79.87;;;22.30;;
419;SDS011;42600;54.408;13.016;2022-11-14T08:03:11;44.47;;;15.93;;
419;SDS011;42600;54.408;13.016;2022-11-14T08:05:39;61.73;;;18.17;;
419;SDS011;42600;54.408;13.016;2022-11-14T08:08:06;58.47;;;14.13;;
419;SDS011;42600;54.408;13.016;2022-11-14T08:10:33;62.43;;;17.07;;
419;SDS011;42600;54.408;13.016;2022-11-14T08:13:00;59.67;;;19.20;;
419;SDS011;42600;54.408;13.016;2022-11-14T08:15:28;64.73;;;19.20;;
419;SDS011;42600;54.408;13.016;2022-11-14T08:17:56;63.23;;;13.83;;
419;SDS011;42600;54.408;13.016;2022-11-14T08:20:23;60.47;;;13.67;;
419;SDS011;42600;54.408;13.016;2022-11-14T08:22:52;69.53;;;16.63;;
419;SDS011;42600;54.408;13.016;2022-11-14T08:25:19;63.67;;;15.97;;
419;SDS011;42600;54.408;13.016;2022-11-14T08:27:45;48.37;;;14.07;;
419;SDS011;42600;54.408;13.016;2022-11-14T08:30:12;40.63;;;12.23;;
419;SDS011;42600;54.408;13.016;2022-11-14T08:32:39;48.67;;;14.23;;
419;SDS011;42600;54.408;13.016;2022-11-14T08:35:06;39.80;;;13.10;;
419;SDS011;42600;54.408;13.016;2022-11-14T08:37:32;72.23;;;17.87;;
419;SDS011;42600;54.408;13.016;2022-11-14T08:40:01;47.57;;;16.60;;
419;SDS011;42600;54.408;13.016;2022-11-14T08:42:28;62.90;;;18.00;;
419;SDS011;42600;54.408;13.016;2022-11-14T08:44:55;68.60;;;18.30;;
419;SDS011;42600;54.408;13.016;2022-11-14T08:47:21;49.53;;;16.20;;
419;SDS011;42600;54.408;13.016;2022-11-14T08:49:48;76.33;;;19.63;;
419;SDS011;42600;54.408;13.016;2022-11-14T08:52:14;58.07;;;18.07;;
419;SDS011;42600;54.408;13.016;2022-11-14T08:54:41;66.90;;;19.80;;
419;SDS011;42600;54.408;13.016;2022-11-14T08:57:09;71.80;;;18.40;;
419;SDS011;42600;54.408;13.016;2022-11-14T08:59:39;54.80;;;16.97;;
419;SDS011;42600;54.408;13.016;2022-11-14T09:02:05;67.83;;;22.03;;
419;SDS011;42600;54.408;13.016;2022-11-14T09:04:34;69.13;;;22.73;;
419;SDS011;42600;54.408;13.016;2022-11-14T09:07:01;73.07;;;19.70;;
419;SDS011;42600;54.408;13.016;2022-11-14T09:09:27;82.50;;;19.63;;
419;SDS011;42600;54.408;13.016;2022-11-14T09:11:54;54.37;;;15.83;;
419;SDS011;42600;54.408;13.016;2022-11-14T09:14:22;50.00;;;19.00;;
419;SDS011;42600;54.408;13.016;2022-11-14T09:16:48;66.27;;;18.60;;
419;SDS011;42600;54.408;13.016;2022-11-14T09:19:15;74.50;;;18.73;;
419;SDS011;42600;54.408;13.016;2022-11-14T09:21:42;65.80;;;18.00;;
419;SDS011;42600;54.408;13.016;2022-11-14T09:24:08;76.50;;;18.40;;
419;SDS011;42600;54.408;13.016;2022-11-14T09:26:35;93.70;;;18.63;;
419;SDS011;42600;54.408;13.016;2022-11-14T09:29:01;56.83;;;21.10;;
419;SDS011;42600;54.408;13.016;2022-11-14T09:31:31;65.20;;;20.00;;
419;SDS011;42600;54.408;13.016;2022-11-14T09:33:58;61.43;;;16.13;;
419;SDS011;42600;54.408;13.016;2022-11-14T09:36:24;46.67;;;14.47;;
419;SDS011;42600;54.408;13.016;2022-11-14T09:38:51;44.67;;;14.80;;
419;SDS011;42600;54.408;13.016;2022-11-14T09:41:22;52.27;;;16.10;;
419;SDS011;42600;54.408;13.016;2022-11-14T09:46:47;46.97;;;14.27;;
419;SDS011;42600;54.408;13.016;2022-11-14T09:49:22;46.80;;;13.43;;
419;SDS011;42600;54.408;13.016;2022-11-14T09:51:53;57.83;;;13.67;;
419;SDS011;42600;54.408;13.016;2022-11-14T09:54:26;46.80;;;15.37;;
419;SDS011;42600;54.408;13.016;2022-11-14T09:56:59;46.90;;;14.90;;
419;SDS011;42600;54.408;13.016;2022-11-14T09:59:26;56.27;;;15.50;;
419;SDS011;42600;54.408;13.016;2022-11-14T10:01:56;48.13;;;13.63;;
419;SDS011;42600;54.408;13.016;2022-11-14T10:04:34;65.73;;;17.13;;
419;SDS011;42600;54.408;13.016;2022-11-14T10:07:15;43.83;;;15.17;;
419;SDS011;42600;54.408;13.016;2022-11-14T10:09:53;52.70;;;13.63;;
419;SDS011;42600;54.408;13.016;2022-11-14T10:12:29;48.07;;;11.80;;
419;SDS011;42600;54.408;13.016;2022-11-14T10:15:07;46.77;;;13.67;;
419;SDS011;42600;54.408;13.016;2022-11-14T10:17:43;50.50;;;14.80;;
419;SDS011;42600;54.408;13.016;2022-11-14T10:20:28;51.30;;;14.03;;
419;SDS011;42600;54.408;13.016;2022-11-14T10:23:04;54.07;;;17.10;;
419;SDS011;42600;54.408;13.016;2022-11-14T10:25:44;57.53;;;16.03;;
419;SDS011;42600;54.408;13.016;2022-11-14T10:28:21;55.40;;;14.43;;
419;SDS011;42600;54.408;13.016;2022-11-14T10:31:00;51.33;;;15.10;;
419;SDS011;42600;54.408;13.016;2022-11-14T10:33:35;55.97;;;15.33;;
419;SDS011;42600;54.408;13.016;2022-11-14T10:36:12;46.17;;;14.83;;
419;SDS011;42600;54.408;13.016;2022-11-14T10:38:44;54.80;;;15.97;;
419;SDS011;42600;54.408;13.016;2022-11-14T10:41:15;43.17;;;15.77;;
419;SDS011;42600;54.408;13.016;2022-11-14T10:43:43;51.97;;;15.57;;
419;SDS011;42600;54.408;13.016;2022-11-14T10:46:13;50.43;;;18.07;;
419;SDS011;42600;54.408;13.016;2022-11-14T10:48:44;55.50;;;11.73;;
419;SDS011;42600;54.408;13.016;2022-11-14T10:51:13;52.40;;;14.97;;
419;SDS011;42600;54.408;13.016;2022-11-14T10:53:48;43.40;;;14.50;;
419;SDS011;42600;54.408;13.016;2022-11-14T10:56:18;83.80;;;19.13;;
419;SDS011;42600;54.408;13.016;2022-11-14T10:58:44;46.50;;;13.77;;
419;SDS011;42600;54.408;13.016;2022-11-14T11:04:00;50.50;;;13.30;;
419;SDS011;42600;54.408;13.016;2022-11-14T11:06:37;39.10;;;11.60;;
419;SDS011;42600;54.408;13.016;2022-11-14T11:09:06;78.40;;;15.13;;
419;SDS011;42600;54.408;13.016;2022-11-14T11:11:52;44.20;;;11.60;;
419;SDS011;42600;54.408;13.016;2022-11-14T11:14:21;83.33;;;20.10;;
419;SDS011;42600;54.408;13.016;2022-11-14T11:16:48;48.93;;;16.90;;
419;SDS011;42600;54.408;13.016;2022-11-14T11:19:22;59.23;;;16.17;;
419;SDS011;42600;54.408;13.016;2022-11-14T11:21:51;46.13;;;16.40;;
419;SDS011;42600;54.408;13.016;2022-11-14T11:27:19;51.97;;;15.37;;
419;SDS011;42600;54.408;13.016;2022-11-14T11:29:49;46.93;;;15.17;;
419;SDS011;42600;54.408;13.016;2022-11-14T11:32:29;45.13;;;13.70;;
419;SDS011;42600;54.408;13.016;2022-11-14T11:34:58;46.37;;;15.10;;
419;SDS011;42600;54.408;13.016;2022-11-14T11:37:27;58.80;;;16.20;;
419;SDS011;42600;54.408;13.016;2022-11-14T11:39:58;48.70;;;15.57;;
419;SDS011;42600;54.408;13.016;2022-11-14T11:42:30;52.27;;;14.30;;
419;SDS011;42600;54.408;13.016;2022-11-14T11:45:02;51.03;;;18.90;;
419;SDS011;42600;54.408;13.016;2022-11-14T11:47:32;80.27;;;17.37;;
419;SDS011;42600;54.408;13.016;2022-11-14T11:50:02;65.23;;;16.30;;
419;SDS011;42600;54.408;13.016;2022-11-14T11:52:31;58.80;;;17.90;;
419;SDS011;42600;54.408;13.016;2022-11-14T11:55:02;62.33;;;13.83;;
419;SDS011;42600;54.408;13.016;2022-11-14T11:57:41;63.70;;;20.00;;
419;SDS011;42600;54.408;13.016;2022-11-14T12:00:13;74.40;;;15.90;;
419;SDS011;42600;54.408;13.016;2022-11-14T12:02:41;65.83;;;19.47;;
419;SDS011;42600;54.408;13.016;2022-11-14T12:05:14;59.70;;;17.03;;
419;SDS011;42600;54.408;13.016;2022-11-14T12:07:43;64.90;;;18.87;;
419;SDS011;42600;54.408;13.016;2022-11-14T12:10:16;86.40;;;21.97;;
419;SDS011;42600;54.408;13.016;2022-11-14T12:12:53;80.40;;;18.20;;
419;SDS011;42600;54.408;13.016;2022-11-14T12:15:55;77.90;;;20.23;;
419;SDS011;42600;54.408;13.016;2022-11-14T12:18:35;74.90;;;20.87;;
419;SDS011;42600;54.408;13.016;2022-11-14T12:21:24;87.37;;;21.87;;
419;SDS011;42600;54.408;13.016;2022-11-14T12:24:13;99.97;;;24.60;;
419;SDS011;42600;54.408;13.016;2022-11-14T12:27:00;121.77;;;25.27;;
419;SDS011;42600;54.408;13.016;2022-11-14T12:29:47;79.73;;;21.13;;
419;SDS011;42600;54.408;13.016;2022-11-14T12:32:23;76.13;;;20.50;;
419;SDS011;42600;54.408;13.016;2022-11-14T12:34:55;81.57;;;19.93;;
419;SDS011;42600;54.408;13.016;2022-11-14T12:37:27;83.10;;;23.90;;
419;SDS011;42600;54.408;13.016;2022-11-14T12:39:58;125.47;;;22.87;;
419;SDS011;42600;54.408;13.016;2022-11-14T12:42:27;106.57;;;27.40;;
419;SDS011;42600;54.408;13.016;2022-11-14T12:44:54;127.93;;;28.03;;
419;SDS011;42600;54.408;13.016;2022-11-14T12:47:21;89.43;;;19.13;;
419;SDS011;42600;54.408;13.016;2022-11-14T12:50:01;118.73;;;29.27;;
419;SDS011;42600;54.408;13.016;2022-11-14T12:52:48;94.43;;;26.30;;
419;SDS011;42600;54.408;13.016;2022-11-14T12:58:22;82.57;;;19.73;;
419;SDS011;42600;54.408;13.016;2022-11-14T13:01:07;85.40;;;20.73;;
419;SDS011;42600;54.408;13.016;2022-11-14T13:03:56;104.20;;;27.63;;
419;SDS011;42600;54.408;13.016;2022-11-14T13:09:29;81.07;;;20.83;;
419;SDS011;42600;54.408;13.016;2022-11-14T13:11:58;89.50;;;21.27;;
419;SDS011;42600;54.408;13.016;2022-11-14T13:15:18;69.33;;;22.40;;
419;SDS011;42600;54.408;13.016;2022-11-14T13:18:17;95.43;;;22.17;;
419;SDS011;42600;54.408;13.016;2022-11-14T13:21:04;47.63;;;16.43;;
419;SDS011;42600;54.408;13.016;2022-11-14T13:23:52;66.67;;;19.03;;
419;SDS011;42600;54.408;13.016;2022-11-14T13:26:41;86.53;;;21.43;;
419;SDS011;42600;54.408;13.016;2022-11-14T13:47:34;115.53;;;22.20;;
419;SDS011;42600;54.408;13.016;2022-11-14T13:50:23;94.30;;;22.70;;
419;SDS011;42600;54.408;13.016;2022-11-14T13:52:54;87.93;;;21.97;;
419;SDS011;42600;54.408;13.016;2022-11-14T13:55:21;92.87;;;23.93;;
419;SDS011;42600;54.408;13.016;2022-11-14T13:58:00;97.97;;;26.07;;
419;SDS011;42600;54.408;13.016;2022-11-14T14:00:45;73.43;;;21.80;;
419;SDS011;42600;54.408;13.016;2022-11-14T14:03:31;102.07;;;23.37;;
419;SDS011;42600;54.408;13.016;2022-11-14T14:06:11;75.83;;;20.10;;
419;SDS011;42600;54.408;13.016;2022-11-14T14:08:55;107.27;;;29.77;;
419;SDS011;42600;54.408;13.016;2022-11-14T14:11:34;65.77;;;22.07;;
419;SDS011;42600;54.408;13.016;2022-11-14T14:14:14;90.27;;;23.97;;
419;SDS011;42600;54.408;13.016;2022-11-14T14:16:54;107.30;;;26.00;;
419;SDS011;42600;54.408;13.016;2022-11-14T14:19:29;90.20;;;29.60;;
419;SDS011;42600;54.408;13.016;2022-11-14T14:22:05;78.47;;;26.23;;
419;SDS011;42600;54.408;13.016;2022-11-14T14:24:38;101.67;;;24.50;;
419;SDS011;42600;54.408;13.016;2022-11-14T14:27:15;115.23;;;25.73;;
419;SDS011;42600;54.408;13.016;2022-11-14T14:29:53;76.43;;;21.40;;
419;SDS011;42600;54.408;13.016;2022-11-14T14:32:28;99.07;;;24.90;;
419;SDS011;42600;54.408;13.016;2022-11-14T14:34:54;95.67;;;24.70;;
419;SDS011;42600;54.408;13.016;2022-11-14T14:37:24;114.23;;;26.90;;
419;SDS011;42600;54.408;13.016;2022-11-14T14:39:56;79.40;;;26.03;;
419;SDS011;42600;54.408;13.016;2022-11-14T14:42:23;111.87;;;27.23;;
419;SDS011;42600;54.408;13.016;2022-11-14T14:44:51;92.07;;;24.07;;
419;SDS011;42600;54.408;13.016;2022-11-14T14:47:26;79.30;;;21.03;;
419;SDS011;42600;54.408;13.016;2022-11-14T14:50:01;106.13;;;26.27;;
419;SDS011;42600;54.408;13.016;2022-11-14T14:52:30;115.23;;;30.33;;
419;SDS011;42600;54.408;13.016;2022-11-14T14:54:58;115.20;;;28.93;;
419;SDS011;42600;54.408;13.016;2022-11-14T14:57:26;116.00;;;28.33;;
419;SDS011;42600;54.408;13.016;2022-11-14T15:00:00;95.23;;;27.30;;
419;SDS011;42600;54.408;13.016;2022-11-14T15:02:29;101.07;;;26.80;;
419;SDS011;42600;54.408;13.016;2022-11-14T15:04:57;128.87;;;28.53;;
419;SDS011;42600;54.408;13.016;2022-11-14T15:07:25;79.50;;;22.30;;
419;SDS011;42600;54.408;13.016;2022-11-14T15:09:54;94.07;;;25.17;;
419;SDS011;42600;54.408;13.016;2022-11-14T15:12:23;80.10;;;25.93;;
419;SDS011;42600;54.408;13.016;2022-11-14T15:14:51;86.73;;;23.37;;
419;SDS011;42600;54.408;13.016;2022-11-14T15:17:19;102.20;;;25.60;;
419;SDS011;42600;54.408;13.016;2022-11-14T15:19:46;97.23;;;22.37;;
419;SDS011;42600;54.408;13.016;2022-11-14T15:22:21;79.90;;;27.63;;
419;SDS011;42600;54.408;13.016;2022-11-14T15:25:03;76.67;;;24.90;;
419;SDS011;42600;54.408;13.016;2022-11-14T15:27:44;101.63;;;27.47;;